sensor_id;sensor_type;location;lat;lon;timestamp;pressure;altitude;pressure_sealevel;temperature;humidity
44481;BME280;30184;42.018;23.670;2023-10-08T00:01:10;92073.19;;;7.14;94.19
44481;BME280;30184;42.018;23.670;2023-10-08T00:03:41;91910.91;;;5.98;93.96
44481;BME280;30184;42.018;23.670;2023-10-08T00:06:17;92063.66;;;7.02;94.18
44481;BME280;30184;42.018;23.670;2023-10-08T00:08:49;92058.19;;;7.09;94.54
44481;BME280;30184;42.018;23.670;2023-10-08T00:11:18;92056.28;;;7.06;95.09
44481;BME280;30184;42.018;23.670;2023-10-08T00:13:50;92059.38;;;7.05;95.28
44481;BME280;30184;42.018;23.670;2023-10-08T00:16:23;91993.75;;;6.60;95.35
44481;BME280;30184;42.018;23.670;2023-10-08T00:18:55;92049.00;;;7.00;95.61
44481;BME280;30184;42.018;23.670;2023-10-08T00:21:30;92057.50;;;6.98;95.90
44481;BME280;30184;42.018;23.670;2023-10-08T00:24:03;91954.66;;;6.27;95.59
44481;BME280;30184;42.018;23.670;2023-10-08T00:26:34;92056.34;;;6.96;95.94
44481;BME280;30184;42.018;23.670;2023-10-08T00:29:08;92048.28;;;6.92;95.56
44481;BME280;30184;42.018;23.670;2023-10-08T00:31:44;92045.97;;;6.91;95.33
44481;BME280;30184;42.018;23.670;2023-10-08T00:34:13;92039.03;;;6.90;95.20
44481;BME280;30184;42.018;23.670;2023-10-08T00:36:45;92040.59;;;6.87;94.99
44481;BME280;30184;42.018;23.670;2023-10-08T00:39:17;91991.44;;;6.58;94.15
44481;BME280;30184;42.018;23.670;2023-10-08T00:41:52;92029.44;;;6.85;93.74
44481;BME280;30184;42.018;23.670;2023-10-08T00:44:26;92029.84;;;6.84;93.75
44481;BME280;30184;42.018;23.670;2023-10-08T00:46:59;91963.13;;;6.29;93.45
44481;BME280;30184;42.018;23.670;2023-10-08T00:49:32;92033.75;;;6.68;92.68
44481;BME280;30184;42.018;23.670;2023-10-08T00:52:16;92009.22;;;6.49;92.85
44481;BME280;30184;42.018;23.670;2023-10-08T00:55:11;91949.31;;;6.13;92.65
44481;BME280;30184;42.018;23.670;2023-10-08T00:57:57;92021.09;;;6.65;93.21
44481;BME280;30184;42.018;23.670;2023-10-08T01:00:36;92025.31;;;6.63;94.10
44481;BME280;30184;42.018;23.670;2023-10-08T01:03:10;92000.75;;;6.47;94.52
44481;BME280;30184;42.018;23.670;2023-10-08T01:05:44;92024.94;;;6.61;94.61
44481;BME280;30184;42.018;23.670;2023-10-08T01:08:16;92026.91;;;6.57;93.81
44481;BME280;30184;42.018;23.670;2023-10-08T01:10:52;92043.47;;;6.55;93.69
44481;BME280;30184;42.018;23.670;2023-10-08T01:13:30;92014.59;;;6.56;94.44
44481;BME280;30184;42.018;23.670;2023-10-08T01:16:11;92014.59;;;6.52;95.01
44481;BME280;30184;42.018;23.670;2023-10-08T01:18:41;92014.59;;;6.52;95.54
44481;BME280;30184;42.018;23.670;2023-10-08T01:21:17;92013.81;;;6.52;95.77
44481;BME280;30184;42.018;23.670;2023-10-08T01:24:04;92023.06;;;6.51;95.80
44481;BME280;30184;42.018;23.670;2023-10-08T01:26:34;92015.38;;;6.49;96.19
44481;BME280;30184;42.018;23.670;2023-10-08T01:29:09;92007.31;;;6.46;96.27
44481;BME280;30184;42.018;23.670;2023-10-08T01:31:47;92010.00;;;6.46;96.64
44481;BME280;30184;42.018;23.670;2023-10-08T01:34:17;92015.78;;;6.44;96.80
44481;BME280;30184;42.018;23.670;2023-10-08T01:36:55;92005.00;;;6.41;96.11
44481;BME280;30184;42.018;23.670;2023-10-08T01:39:29;92003.88;;;6.38;94.38
44481;BME280;30184;42.018;23.670;2023-10-08T01:42:00;92005.44;;;6.35;94.46
44481;BME280;30184;42.018;23.670;2023-10-08T01:44:29;92010.06;;;6.35;94.79
44481;BME280;30184;42.018;23.670;2023-10-08T01:46:59;92000.50;;;6.20;94.97
44481;BME280;30184;42.018;23.670;2023-10-08T01:49:29;91957.13;;;5.93;95.79
44481;BME280;30184;42.018;23.670;2023-10-08T01:52:01;92016.22;;;6.32;96.26
44481;BME280;30184;42.018;23.670;2023-10-08T01:54:36;92011.59;;;6.32;96.42
44481;BME280;30184;42.018;23.670;2023-10-08T01:57:05;91977.41;;;6.12;95.67
44481;BME280;30184;42.018;23.670;2023-10-08T01:59:37;91993.16;;;6.27;95.65
44481;BME280;30184;42.018;23.670;2023-10-08T02:02:07;92006.63;;;6.27;95.81
44481;BME280;30184;42.018;23.670;2023-10-08T02:04:36;91989.31;;;6.25;96.66
44481;BME280;30184;42.018;23.670;2023-10-08T02:07:05;91991.22;;;6.24;96.88
44481;BME280;30184;42.018;23.670;2023-10-08T02:09:38;91930.56;;;5.91;96.79
44481;BME280;30184;42.018;23.670;2023-10-08T02:12:09;91978.53;;;6.21;96.19
44481;BME280;30184;42.018;23.670;2023-10-08T02:14:42;92029.38;;;6.19;96.27
44481;BME280;30184;42.018;23.670;2023-10-08T02:17:12;91976.75;;;5.90;96.03
44481;BME280;30184;42.018;23.670;2023-10-08T02:19:41;91948.63;;;6.02;96.20
44481;BME280;30184;42.018;23.670;2023-10-08T02:22:10;91978.19;;;6.16;96.58
44481;BME280;30184;42.018;23.670;2023-10-08T02:24:42;91965.09;;;6.14;96.97
44481;BME280;30184;42.018;23.670;2023-10-08T02:27:11;91965.09;;;6.14;96.95
44481;BME280;30184;42.018;23.670;2023-10-08T02:29:43;91924.38;;;5.87;97.10
44481;BME280;30184;42.018;23.670;2023-10-08T02:32:12;91973.97;;;6.11;97.68
44481;BME280;30184;42.018;23.670;2023-10-08T02:34:41;91966.28;;;6.10;97.60
44481;BME280;30184;42.018;23.670;2023-10-08T02:37:10;91966.69;;;6.01;97.54
44481;BME280;30184;42.018;23.670;2023-10-08T02:39:42;91954.00;;;6.02;97.63
44481;BME280;30184;42.018;23.670;2023-10-08T02:42:13;91965.50;;;6.09;97.66
44481;BME280;30184;42.018;23.670;2023-10-08T02:44:42;91958.97;;;6.07;97.65
44481;BME280;30184;42.018;23.670;2023-10-08T02:47:12;91846.91;;;5.29;97.77
44481;BME280;30184;42.018;23.670;2023-10-08T02:49:44;91952.44;;;6.04;97.88
44481;BME280;30184;42.018;23.670;2023-10-08T02:52:16;91957.03;;;6.04;97.96
44481;BME280;30184;42.018;23.670;2023-10-08T02:54:46;91956.69;;;6.02;97.48
44481;BME280;30184;42.018;23.670;2023-10-08T02:57:20;91961.31;;;6.01;97.49
44481;BME280;30184;42.018;23.670;2023-10-08T02:59:50;91971.31;;;5.97;97.24
44481;BME280;30184;42.018;23.670;2023-10-08T03:02:22;91862.28;;;5.32;96.79
44481;BME280;30184;42.018;23.670;2023-10-08T03:04:52;91962.09;;;5.98;96.71
44481;BME280;30184;42.018;23.670;2023-10-08T03:07:21;91961.69;;;5.96;97.42
44481;BME280;30184;42.018;23.670;2023-10-08T03:10:01;91966.69;;;5.94;97.78
44481;BME280;30184;42.018;23.670;2023-10-08T03:12:34;91951.31;;;5.94;97.92
44481;BME280;30184;42.018;23.670;2023-10-08T03:15:04;91964.78;;;5.94;97.74
44481;BME280;30184;42.018;23.670;2023-10-08T03:17:42;91956.69;;;5.94;97.48
44481;BME280;30184;42.018;23.670;2023-10-08T03:20:18;91933.28;;;5.74;96.04
44481;BME280;30184;42.018;23.670;2023-10-08T03:23:06;91959.41;;;5.84;95.04
44481;BME280;30184;42.018;23.670;2023-10-08T03:25:42;91954.84;;;5.67;94.70
44481;BME280;30184;42.018;23.670;2023-10-08T03:28:14;91954.84;;;5.74;94.93
44481;BME280;30184;42.018;23.670;2023-10-08T03:30:44;91948.69;;;5.73;95.54
44481;BME280;30184;42.018;23.670;2023-10-08T03:33:20;91954.44;;;5.72;96.57
44481;BME280;30184;42.018;23.670;2023-10-08T03:35:54;91959.06;;;5.71;97.11
44481;BME280;30184;42.018;23.670;2023-10-08T03:38:24;91960.22;;;5.70;97.77
44481;BME280;30184;42.018;23.670;2023-10-08T03:41:09;91957.91;;;5.69;98.09
44481;BME280;30184;42.018;23.670;2023-10-08T03:43:44;91963.28;;;5.69;98.49
44481;BME280;30184;42.018;23.670;2023-10-08T03:46:20;91967.16;;;5.68;98.60
44481;BME280;30184;42.018;23.670;2023-10-08T03:48:52;91977.16;;;5.67;98.69
44481;BME280;30184;42.018;23.670;2023-10-08T03:51:25;91969.44;;;5.66;98.93
44481;BME280;30184;42.018;23.670;2023-10-08T03:53:56;91961.00;;;5.60;99.09
44481;BME280;30184;42.018;23.670;2023-10-08T03:56:45;91970.25;;;5.59;99.04
44481;BME280;30184;42.018;23.670;2023-10-08T03:59:16;91964.88;;;5.55;98.35
44481;BME280;30184;42.018;23.670;2023-10-08T04:01:58;91892.72;;;4.97;96.76
44481;BME280;30184;42.018;23.670;2023-10-08T04:04:41;91955.66;;;5.42;96.91
44481;BME280;30184;42.018;23.670;2023-10-08T04:07:21;91891.16;;;4.96;97.16
44481;BME280;30184;42.018;23.670;2023-10-08T04:09:57;91956.44;;;5.39;97.39
44481;BME280;30184;42.018;23.670;2023-10-08T04:12:56;91953.75;;;5.39;97.80
44481;BME280;30184;42.018;23.670;2023-10-08T04:15:25;91959.50;;;5.38;97.26
44481;BME280;30184;42.018;23.670;2023-10-08T04:17:55;91954.91;;;5.38;97.12
44481;BME280;30184;42.018;23.670;2023-10-08T04:20:25;91954.13;;;5.38;97.13
44481;BME280;30184;42.018;23.670;2023-10-08T04:23:07;91959.13;;;5.39;97.41
44481;BME280;30184;42.018;23.670;2023-10-08T04:25:41;91996.81;;;5.39;97.60
44481;BME280;30184;42.018;23.670;2023-10-08T04:28:13;91959.50;;;5.38;97.95
44481;BME280;30184;42.018;23.670;2023-10-08T04:30:45;91974.13;;;5.40;97.99
44481;BME280;30184;42.018;23.670;2023-10-08T04:33:15;91975.28;;;5.43;98.11
44481;BME280;30184;42.018;23.670;2023-10-08T04:35:47;91972.59;;;5.43;98.58
44481;BME280;30184;42.018;23.670;2023-10-08T04:38:20;91963.34;;;5.40;98.72
44481;BME280;30184;42.018;23.670;2023-10-08T04:40:50;91967.19;;;5.43;98.43
44481;BME280;30184;42.018;23.670;2023-10-08T04:43:23;91936.50;;;5.19;98.30
44481;BME280;30184;42.018;23.670;2023-10-08T04:45:53;91970.28;;;5.41;98.16
44481;BME280;30184;42.018;23.670;2023-10-08T04:48:24;91939.56;;;5.17;97.97
44481;BME280;30184;42.018;23.670;2023-10-08T04:50:55;91957.97;;;5.40;97.40
44481;BME280;30184;42.018;23.670;2023-10-08T04:53:28;91964.50;;;5.39;96.82
44481;BME280;30184;42.018;23.670;2023-10-08T04:56:04;91960.28;;;5.38;96.47
44481;BME280;30184;42.018;23.670;2023-10-08T04:58:36;91996.41;;;5.41;96.99
44481;BME280;30184;42.018;23.670;2023-10-08T05:01:08;91962.59;;;5.43;97.28
44481;BME280;30184;42.018;23.670;2023-10-08T05:03:48;91903.06;;;5.09;97.59
44481;BME280;30184;42.018;23.670;2023-10-08T05:06:35;91946.06;;;5.34;97.64
44481;BME280;30184;42.018;23.670;2023-10-08T05:09:18;91960.25;;;5.49;97.71
44481;BME280;30184;42.018;23.670;2023-10-08T05:12:06;91960.25;;;5.49;97.21
44481;BME280;30184;42.018;23.670;2023-10-08T05:14:57;91955.66;;;5.46;96.19
44481;BME280;30184;42.018;23.670;2023-10-08T05:17:40;91959.13;;;5.43;95.85
44481;BME280;30184;42.018;23.670;2023-10-08T05:20:24;91965.66;;;5.45;96.26
44481;BME280;30184;42.018;23.670;2023-10-08T05:23:09;91964.09;;;5.48;96.25
44481;BME280;30184;42.018;23.670;2023-10-08T05:26:14;91953.72;;;5.53;96.33
44481;BME280;30184;42.018;23.670;2023-10-08T05:28:58;91954.13;;;5.55;96.62
44481;BME280;30184;42.018;23.670;2023-10-08T05:31:52;91947.97;;;5.51;96.97
44481;BME280;30184;42.018;23.670;2023-10-08T05:34:41;91751.88;;;4.17;96.91
44481;BME280;30184;42.018;23.670;2023-10-08T05:37:41;91964.06;;;5.66;97.50
44481;BME280;30184;42.018;23.670;2023-10-08T05:40:10;91969.44;;;5.69;98.09
44481;BME280;30184;42.018;23.670;2023-10-08T05:42:49;91961.00;;;5.63;98.52
44481;BME280;30184;42.018;23.670;2023-10-08T05:45:31;91931.03;;;5.51;98.66
44481;BME280;30184;42.018;23.670;2023-10-08T05:48:04;91961.72;;;5.78;99.02
44481;BME280;30184;42.018;23.670;2023-10-08T05:50:41;91955.19;;;5.83;99.43
44481;BME280;30184;42.018;23.670;2023-10-08T05:53:23;91927.91;;;5.70;99.59
44481;BME280;30184;42.018;23.670;2023-10-08T05:56:11;91948.56;;;6.05;99.90
44481;BME280;30184;42.018;23.670;2023-10-08T05:58:57;91951.56;;;6.28;100.00
44481;BME280;30184;42.018;23.670;2023-10-08T06:01:42;91981.84;;;6.50;100.00
44481;BME280;30184;42.018;23.670;2023-10-08T06:04:15;91953.22;;;6.70;100.00
44481;BME280;30184;42.018;23.670;2023-10-08T06:07:10;91953.44;;;6.97;100.00
44481;BME280;30184;42.018;23.670;2023-10-08T06:09:48;91940.53;;;7.19;99.82
44481;BME280;30184;42.018;23.670;2023-10-08T06:12:29;91955.03;;;7.36;97.53
44481;BME280;30184;42.018;23.670;2023-10-08T06:15:08;91930.72;;;7.39;97.22
44481;BME280;30184;42.018;23.670;2023-10-08T06:17:37;91949.25;;;7.78;96.91
44481;BME280;30184;42.018;23.670;2023-10-08T06:20:26;91942.03;;;8.02;96.46
44481;BME280;30184;42.018;23.670;2023-10-08T06:22:58;91925.72;;;8.09;93.79
44481;BME280;30184;42.018;23.670;2023-10-08T06:25:29;91906.56;;;8.27;92.78
44481;BME280;30184;42.018;23.670;2023-10-08T06:27:58;91930.44;;;8.63;90.64
44481;BME280;30184;42.018;23.670;2023-10-08T06:30:30;91627.03;;;6.63;89.13
44481;BME280;30184;42.018;23.670;2023-10-08T06:33:03;91930.25;;;9.04;87.08
44481;BME280;30184;42.018;23.670;2023-10-08T06:35:34;91928.03;;;9.22;85.77
44481;BME280;30184;42.018;23.670;2023-10-08T06:38:03;91933.50;;;9.42;85.87
44481;BME280;30184;42.018;23.670;2023-10-08T06:40:37;91918.59;;;9.53;85.72
44481;BME280;30184;42.018;23.670;2023-10-08T06:43:12;91918.50;;;9.80;86.34
44481;BME280;30184;42.018;23.670;2023-10-08T06:45:45;91918.53;;;10.00;86.21
44481;BME280;30184;42.018;23.670;2023-10-08T06:48:14;91909.22;;;10.21;86.17
44481;BME280;30184;42.018;23.670;2023-10-08T06:50:51;91920.81;;;10.41;86.20
44481;BME280;30184;42.018;23.670;2023-10-08T06:53:24;91911.81;;;10.64;85.06
44481;BME280;30184;42.018;23.670;2023-10-08T06:55:57;91906.00;;;10.81;81.69
44481;BME280;30184;42.018;23.670;2023-10-08T06:58:32;91906.78;;;10.98;80.23
44481;BME280;30184;42.018;23.670;2023-10-08T07:01:01;91909.25;;;11.09;75.47
44481;BME280;30184;42.018;23.670;2023-10-08T07:03:32;91900.59;;;11.30;78.01
44481;BME280;30184;42.018;23.670;2023-10-08T07:06:04;91898.19;;;11.48;79.05
44481;BME280;30184;42.018;23.670;2023-10-08T07:08:44;91896.22;;;11.65;79.15
44481;BME280;30184;42.018;23.670;2023-10-08T07:11:21;91883.63;;;11.71;78.57
44481;BME280;30184;42.018;23.670;2023-10-08T07:13:50;91889.09;;;12.00;78.13
44481;BME280;30184;42.018;23.670;2023-10-08T07:16:19;91890.56;;;12.17;76.55
44481;BME280;30184;42.018;23.670;2023-10-08T07:18:48;91879.19;;;12.35;72.87
44481;BME280;30184;42.018;23.670;2023-10-08T07:21:21;91888.25;;;12.57;73.54
44481;BME280;30184;42.018;23.670;2023-10-08T07:23:56;91793.13;;;12.00;73.49
44481;BME280;30184;42.018;23.670;2023-10-08T07:26:27;91881.66;;;12.96;73.40
44481;BME280;30184;42.018;23.670;2023-10-08T07:29:04;91879.56;;;13.13;72.98
44481;BME280;30184;42.018;23.670;2023-10-08T07:31:37;91868.88;;;13.31;72.52
44481;BME280;30184;42.018;23.670;2023-10-08T07:34:09;91856.19;;;13.50;71.35
44481;BME280;30184;42.018;23.670;2023-10-08T07:36:48;91846.22;;;13.69;71.42
44481;BME280;30184;42.018;23.670;2023-10-08T07:39:21;91808.44;;;13.45;70.37
44481;BME280;30184;42.018;23.670;2023-10-08T07:42:04;91851.53;;;14.07;68.75
44481;BME280;30184;42.018;23.670;2023-10-08T07:44:38;91847.06;;;14.22;63.33
44481;BME280;30184;42.018;23.670;2023-10-08T07:47:07;91845.47;;;14.34;62.78
44481;BME280;30184;42.018;23.670;2023-10-08T07:49:40;91844.81;;;14.42;61.29
44481;BME280;30184;42.018;23.670;2023-10-08T07:52:14;91848.28;;;14.74;63.32
44481;BME280;30184;42.018;23.670;2023-10-08T07:54:44;91844.44;;;14.93;60.52
44481;BME280;30184;42.018;23.670;2023-10-08T07:57:13;91860.69;;;14.97;62.92
44481;BME280;30184;42.018;23.670;2023-10-08T07:59:46;91735.53;;;14.64;63.78
44481;BME280;30184;42.018;23.670;2023-10-08T08:02:17;91832.16;;;15.47;63.36
44481;BME280;30184;42.018;23.670;2023-10-08T08:04:51;91829.16;;;15.63;63.03
44481;BME280;30184;42.018;23.670;2023-10-08T08:07:22;91827.78;;;15.77;61.95
44481;BME280;30184;42.018;23.670;2023-10-08T08:09:53;91761.84;;;15.56;60.71
44481;BME280;30184;42.018;23.670;2023-10-08T08:12:28;91812.44;;;16.07;59.66
44481;BME280;30184;42.018;23.670;2023-10-08T08:15:00;91799.19;;;16.14;57.60
44481;BME280;30184;42.018;23.670;2023-10-08T08:17:42;91790.34;;;16.37;55.82
44481;BME280;30184;42.018;23.670;2023-10-08T08:20:12;91757.38;;;15.95;54.07
44481;BME280;30184;42.018;23.670;2023-10-08T08:22:47;91785.88;;;16.58;54.72
44481;BME280;30184;42.018;23.670;2023-10-08T08:25:22;91785.22;;;16.72;53.12
44481;BME280;30184;42.018;23.670;2023-10-08T08:28:02;91787.00;;;16.85;51.58
44481;BME280;30184;42.018;23.670;2023-10-08T08:30:33;91739.28;;;16.67;50.84
44481;BME280;30184;42.018;23.670;2023-10-08T08:33:04;91783.53;;;17.08;50.42
44481;BME280;30184;42.018;23.670;2023-10-08T08:35:39;91768.50;;;17.03;49.91
44481;BME280;30184;42.018;23.670;2023-10-08T08:38:09;91781.00;;;17.28;50.35
44481;BME280;30184;42.018;23.670;2023-10-08T08:40:40;91777.75;;;17.39;48.76
44481;BME280;30184;42.018;23.670;2023-10-08T08:43:10;91789.88;;;17.47;47.48
44481;BME280;30184;42.018;23.670;2023-10-08T08:45:40;91763.91;;;17.57;48.09
44481;BME280;30184;42.018;23.670;2023-10-08T08:48:12;91764.91;;;17.69;47.52
44481;BME280;30184;42.018;23.670;2023-10-08T08:50:42;91761.16;;;17.81;46.98
44481;BME280;30184;42.018;23.670;2023-10-08T08:53:13;91761.94;;;17.96;46.09
44481;BME280;30184;42.018;23.670;2023-10-08T08:55:42;91750.69;;;18.09;45.55
44481;BME280;30184;42.018;23.670;2023-10-08T08:58:12;91749.19;;;18.22;45.75
44481;BME280;30184;42.018;23.670;2023-10-08T09:00:44;91740.19;;;18.37;45.25
44481;BME280;30184;42.018;23.670;2023-10-08T09:03:17;91747.69;;;18.51;42.71
44481;BME280;30184;42.018;23.670;2023-10-08T09:05:47;91739.44;;;18.66;45.12
44481;BME280;30184;42.018;23.670;2023-10-08T09:08:20;91717.38;;;18.60;44.13
44481;BME280;30184;42.018;23.670;2023-10-08T09:10:52;91732.31;;;18.88;43.38
44481;BME280;30184;42.018;23.670;2023-10-08T09:13:28;91740.72;;;18.99;43.52
44481;BME280;30184;42.018;23.670;2023-10-08T09:16:03;91743.59;;;19.11;42.02
44481;BME280;30184;42.018;23.670;2023-10-08T09:18:35;91735.53;;;19.22;41.61
44481;BME280;30184;42.018;23.670;2023-10-08T09:21:10;91735.69;;;19.33;40.93
44481;BME280;30184;42.018;23.670;2023-10-08T09:23:41;91712.00;;;19.21;40.45
44481;BME280;30184;42.018;23.670;2023-10-08T09:26:12;91737.25;;;19.54;39.02
44481;BME280;30184;42.018;23.670;2023-10-08T09:28:47;91739.09;;;19.63;40.75
44481;BME280;30184;42.018;23.670;2023-10-08T09:31:23;91728.19;;;19.74;38.41
44481;BME280;30184;42.018;23.670;2023-10-08T09:33:54;91714.50;;;19.80;37.94
44481;BME280;30184;42.018;23.670;2023-10-08T09:36:23;91714.41;;;19.94;40.00
44481;BME280;30184;42.018;23.670;2023-10-08T09:39:04;91706.06;;;20.09;40.02
44481;BME280;30184;42.018;23.670;2023-10-08T09:41:34;91649.97;;;19.86;37.90
44481;BME280;30184;42.018;23.670;2023-10-08T09:44:05;91566.72;;;19.45;38.95
44481;BME280;30184;42.018;23.670;2023-10-08T09:46:40;91678.50;;;20.35;37.09
44481;BME280;30184;42.018;23.670;2023-10-08T09:49:13;91695.19;;;20.52;36.89
44481;BME280;30184;42.018;23.670;2023-10-08T09:51:44;91676.25;;;20.65;36.57
44481;BME280;30184;42.018;23.670;2023-10-08T09:54:22;91647.09;;;20.58;37.37
44481;BME280;30184;42.018;23.670;2023-10-08T09:56:54;91640.22;;;20.74;37.18
44481;BME280;30184;42.018;23.670;2023-10-08T09:59:26;91667.44;;;20.98;37.05
44481;BME280;30184;42.018;23.670;2023-10-08T10:01:56;91662.09;;;20.89;36.35
44481;BME280;30184;42.018;23.670;2023-10-08T10:04:30;91665.63;;;20.89;35.42
44481;BME280;30184;42.018;23.670;2023-10-08T10:07:08;91571.84;;;20.15;35.25
44481;BME280;30184;42.018;23.670;2023-10-08T10:09:44;91580.91;;;20.21;35.41
44481;BME280;30184;42.018;23.670;2023-10-08T10:12:18;91663.44;;;20.62;34.58
44481;BME280;30184;42.018;23.670;2023-10-08T10:14:54;91654.31;;;20.50;35.64
44481;BME280;30184;42.018;23.670;2023-10-08T10:17:25;91660.50;;;20.39;34.88
44481;BME280;30184;42.018;23.670;2023-10-08T10:20:10;91669.19;;;20.32;33.91
44481;BME280;30184;42.018;23.670;2023-10-08T10:22:42;91648.84;;;20.30;33.58
44481;BME280;30184;42.018;23.670;2023-10-08T10:25:17;91654.88;;;20.28;34.34
44481;BME280;30184;42.018;23.670;2023-10-08T10:31:02;91648.22;;;20.40;35.00
44481;BME280;30184;42.018;23.670;2023-10-08T10:33:32;91646.94;;;20.36;33.67
44481;BME280;30184;42.018;23.670;2023-10-08T10:36:01;91648.94;;;20.35;34.64
44481;BME280;30184;42.018;23.670;2023-10-08T10:38:37;91651.31;;;20.48;34.99
44481;BME280;30184;42.018;23.670;2023-10-08T10:41:11;91646.88;;;20.62;35.71
44481;BME280;30184;42.018;23.670;2023-10-08T10:43:43;91637.97;;;20.78;34.08
44481;BME280;30184;42.018;23.670;2023-10-08T10:46:20;91637.28;;;20.89;34.70
44481;BME280;30184;42.018;23.670;2023-10-08T10:48:59;91636.09;;;21.01;34.33
44481;BME280;30184;42.018;23.670;2023-10-08T10:51:47;91643.91;;;21.02;33.79
44481;BME280;30184;42.018;23.670;2023-10-08T10:54:16;91625.72;;;21.21;35.14
44481;BME280;30184;42.018;23.670;2023-10-08T10:56:53;91619.19;;;21.25;34.72
44481;BME280;30184;42.018;23.670;2023-10-08T10:59:31;91619.19;;;21.25;35.54
44481;BME280;30184;42.018;23.670;2023-10-08T11:02:05;91613.19;;;21.32;36.05
44481;BME280;30184;42.018;23.670;2023-10-08T11:04:36;91636.81;;;21.44;35.74
44481;BME280;30184;42.018;23.670;2023-10-08T11:07:17;91610.00;;;21.50;36.33
44481;BME280;30184;42.018;23.670;2023-10-08T11:09:47;91531.75;;;20.99;36.08
44481;BME280;30184;42.018;23.670;2023-10-08T11:12:21;91606.78;;;21.63;38.07
44481;BME280;30184;42.018;23.670;2023-10-08T11:15:00;91600.25;;;21.66;35.71
44481;BME280;30184;42.018;23.670;2023-10-08T11:17:33;91590.22;;;21.68;36.66
44481;BME280;30184;42.018;23.670;2023-10-08T11:20:01;91587.72;;;21.76;35.48
44481;BME280;30184;42.018;23.670;2023-10-08T11:22:41;91597.78;;;21.84;35.70
44481;BME280;30184;42.018;23.670;2023-10-08T11:25:21;91580.72;;;21.97;39.16
44481;BME280;30184;42.018;23.670;2023-10-08T11:27:53;91575.72;;;22.07;37.82
44481;BME280;30184;42.018;23.670;2023-10-08T11:30:30;91577.25;;;22.13;36.45
44481;BME280;30184;42.018;23.670;2023-10-08T11:33:03;91561.16;;;22.12;36.73
44481;BME280;30184;42.018;23.670;2023-10-08T11:35:34;91565.66;;;22.26;35.74
44481;BME280;30184;42.018;23.670;2023-10-08T11:38:03;91606.13;;;22.46;35.66
44481;BME280;30184;42.018;23.670;2023-10-08T11:40:37;91601.88;;;22.50;36.32
44481;BME280;30184;42.018;23.670;2023-10-08T11:43:18;91551.59;;;22.46;36.05
44481;BME280;30184;42.018;23.670;2023-10-08T11:45:49;91596.59;;;22.75;35.16
44481;BME280;30184;42.018;23.670;2023-10-08T11:48:19;91565.16;;;22.78;35.11
44481;BME280;30184;42.018;23.670;2023-10-08T11:50:56;91571.13;;;22.93;34.40
44481;BME280;30184;42.018;23.670;2023-10-08T11:53:29;91583.69;;;23.05;34.63
44481;BME280;30184;42.018;23.670;2023-10-08T11:56:01;91574.81;;;23.18;34.41
44481;BME280;30184;42.018;23.670;2023-10-08T11:58:38;91582.59;;;23.30;35.02
44481;BME280;30184;42.018;23.670;2023-10-08T12:01:07;91546.09;;;23.26;35.19
44481;BME280;30184;42.018;23.670;2023-10-08T12:03:39;91565.66;;;23.51;34.67
44481;BME280;30184;42.018;23.670;2023-10-08T12:06:09;91528.91;;;23.39;34.50
44481;BME280;30184;42.018;23.670;2023-10-08T12:08:44;91559.75;;;23.71;34.66
44481;BME280;30184;42.018;23.670;2023-10-08T12:11:14;91513.78;;;23.51;33.54
44481;BME280;30184;42.018;23.670;2023-10-08T12:13:46;91550.34;;;23.85;34.17
44481;BME280;30184;42.018;23.670;2023-10-08T12:16:16;91563.63;;;23.92;33.73
44481;BME280;30184;42.018;23.670;2023-10-08T12:18:49;91551.81;;;23.92;34.13
44481;BME280;30184;42.018;23.670;2023-10-08T12:21:21;91487.75;;;23.65;33.58
44481;BME280;30184;42.018;23.670;2023-10-08T12:23:52;91536.47;;;23.85;33.37
44481;BME280;30184;42.018;23.670;2023-10-08T12:26:22;91534.84;;;24.01;33.72
44481;BME280;30184;42.018;23.670;2023-10-08T12:28:54;91482.94;;;23.71;34.09
44481;BME280;30184;42.018;23.670;2023-10-08T12:31:25;91573.16;;;24.02;33.46
44481;BME280;30184;42.018;23.670;2023-10-08T12:33:57;91545.44;;;24.02;33.80
44481;BME280;30184;42.018;23.670;2023-10-08T12:36:28;91554.75;;;24.05;34.16
44481;BME280;30184;42.018;23.670;2023-10-08T12:39:01;91564.84;;;24.02;33.34
44481;BME280;30184;42.018;23.670;2023-10-08T12:41:43;91553.81;;;23.91;33.60
44481;BME280;30184;42.018;23.670;2023-10-08T12:44:14;91552.34;;;23.90;34.04
44481;BME280;30184;42.018;23.670;2023-10-08T12:46:45;91498.91;;;23.49;34.57
44481;BME280;30184;42.018;23.670;2023-10-08T12:49:17;91573.47;;;23.93;33.64
44481;BME280;30184;42.018;23.670;2023-10-08T12:51:48;91550.78;;;23.95;34.19
44481;BME280;30184;42.018;23.670;2023-10-08T12:54:20;91550.66;;;23.76;34.03
44481;BME280;30184;42.018;23.670;2023-10-08T12:56:52;91562.53;;;23.65;34.26
44481;BME280;30184;42.018;23.670;2023-10-08T12:59:26;91561.59;;;23.57;34.70
44481;BME280;30184;42.018;23.670;2023-10-08T13:01:59;91584.56;;;23.41;34.87
44481;BME280;30184;42.018;23.670;2023-10-08T13:04:35;91601.75;;;23.23;35.33
44481;BME280;30184;42.018;23.670;2023-10-08T13:07:09;91572.41;;;22.97;35.23
44481;BME280;30184;42.018;23.670;2023-10-08T13:09:39;91598.06;;;22.98;35.49
44481;BME280;30184;42.018;23.670;2023-10-08T13:12:10;91587.47;;;22.91;35.68
44481;BME280;30184;42.018;23.670;2023-10-08T13:14:44;91597.09;;;22.79;36.15
44481;BME280;30184;42.018;23.670;2023-10-08T13:17:13;91598.84;;;22.70;35.96
44481;BME280;30184;42.018;23.670;2023-10-08T13:19:43;91606.38;;;22.64;35.97
44481;BME280;30184;42.018;23.670;2023-10-08T13:22:14;91583.25;;;22.56;36.06
44481;BME280;30184;42.018;23.670;2023-10-08T13:24:47;91554.88;;;22.22;36.15
44481;BME280;30184;42.018;23.670;2023-10-08T13:27:18;91601.88;;;22.50;35.92
44481;BME280;30184;42.018;23.670;2023-10-08T13:29:48;91593.84;;;22.41;35.92
44481;BME280;30184;42.018;23.670;2023-10-08T13:32:19;91477.97;;;21.59;36.63
44481;BME280;30184;42.018;23.670;2023-10-08T13:34:49;91607.41;;;22.39;36.67